ロゾー の空港の天気 - METARとTAF

ケインフィールド空港 ( TDCF / DCF ) - ドミニカ国 ロゾー
飛行場実況気象(Metar)
観測時間12/03 10:00 AST (12/03 14:00 UTC)
風向・風速西 2m/s
視程10km以上
天気現象
少しの雲 雲底高度 640m
気温29℃
湿度55%
気圧1014hPa
METARTDCF 031400Z 28003KT 9999 FEW021 29/19 Q1014
過去の天気等 Google飛行場航空写真 Wunderground天気予報

過去48時間のMETAR

飛行場予報(TAF)
データがありません